createdAt,value
2023-01-06T00:02:17.221Z,1.47
2023-01-06T00:04:44.278Z,1.20
2023-01-06T00:07:11.226Z,1.57
2023-01-06T00:09:38.999Z,1.20
2023-01-06T00:12:07.434Z,1.20
2023-01-06T00:14:34.205Z,1.00
2023-01-06T00:17:01.071Z,1.10
2023-01-06T00:19:28.222Z,1.30
2023-01-06T00:21:55.028Z,1.20
2023-01-06T00:24:21.954Z,1.33
2023-01-06T00:26:48.713Z,1.30
2023-01-06T00:29:15.636Z,1.40
2023-01-06T00:31:42.507Z,1.30
2023-01-06T00:34:10.658Z,1.13
2023-01-06T00:36:40.456Z,1.23
2023-01-06T00:39:11.702Z,1.30
2023-01-06T00:41:57.321Z,1.77
2023-01-06T00:44:24.514Z,2.90
2023-01-06T00:46:51.447Z,1.47
2023-01-06T00:49:18.470Z,1.87
2023-01-06T00:51:45.471Z,1.53
2023-01-06T00:54:13.110Z,1.80
2023-01-06T00:56:41.124Z,2.00
2023-01-06T00:59:08.668Z,2.13
2023-01-06T01:01:36.000Z,2.00
2023-01-06T01:04:03.343Z,1.70
2023-01-06T01:06:30.261Z,1.90
2023-01-06T01:08:57.853Z,2.33
2023-01-06T01:11:43.316Z,2.13
2023-01-06T01:14:10.926Z,1.60
2023-01-06T01:16:37.806Z,1.70
2023-01-06T01:19:05.209Z,1.87
2023-01-06T01:21:32.158Z,2.20
2023-01-06T01:23:58.985Z,1.50
2023-01-06T01:26:26.011Z,1.43
2023-01-06T01:28:53.278Z,1.40
2023-01-06T01:31:20.717Z,1.47
2023-01-06T01:33:47.701Z,2.07
2023-01-06T01:36:16.343Z,1.63
2023-01-06T01:38:43.759Z,1.80
2023-01-06T01:41:15.334Z,1.83
2023-01-06T01:43:48.423Z,1.87
2023-01-06T01:46:19.053Z,1.67
2023-01-06T01:48:46.275Z,1.50
2023-01-06T01:51:15.566Z,2.10
2023-01-06T01:53:48.661Z,1.97
2023-01-06T01:56:18.677Z,2.00
2023-01-06T01:58:48.871Z,2.40
2023-01-06T02:01:15.899Z,2.00
2023-01-06T02:03:42.841Z,1.63
2023-01-06T02:06:13.886Z,1.73
2023-01-06T02:08:43.135Z,1.60
2023-01-06T02:11:10.087Z,1.60
2023-01-06T02:13:39.059Z,1.77
2023-01-06T02:16:12.924Z,2.13
2023-01-06T02:18:51.763Z,1.80
2023-01-06T02:21:21.377Z,1.97
2023-01-06T02:23:48.556Z,1.90
2023-01-06T02:26:15.528Z,1.77
2023-01-06T02:29:02.403Z,1.43
2023-01-06T02:31:35.780Z,1.67
2023-01-06T02:34:22.107Z,2.20
2023-01-06T02:36:56.123Z,2.00
2023-01-06T02:39:41.244Z,1.67
2023-01-06T02:42:08.538Z,1.83
2023-01-06T02:44:44.962Z,2.00
2023-01-06T02:47:12.685Z,2.00
2023-01-06T02:49:43.558Z,2.10
2023-01-06T02:52:33.978Z,2.27
2023-01-06T02:55:04.524Z,2.00
2023-01-06T02:57:36.966Z,1.67
2023-01-06T03:00:23.436Z,1.87
2023-01-06T03:02:53.572Z,2.03
2023-01-06T03:05:23.405Z,2.17
2023-01-06T03:07:51.875Z,2.37
2023-01-06T03:10:20.744Z,1.80
2023-01-06T03:12:50.803Z,2.40
2023-01-06T03:15:18.739Z,2.30
2023-01-06T03:17:45.680Z,2.03
2023-01-06T03:20:13.726Z,2.33
2023-01-06T03:22:41.314Z,2.90
2023-01-06T03:25:09.007Z,2.40
2023-01-06T03:27:36.591Z,2.10
2023-01-06T03:30:06.958Z,2.50
2023-01-06T03:32:39.631Z,2.30
2023-01-06T03:35:13.515Z,2.97
2023-01-06T03:37:49.763Z,2.40
2023-01-06T03:40:23.744Z,2.23
2023-01-06T03:43:12.216Z,2.37
2023-01-06T03:45:53.452Z,2.00
2023-01-06T03:48:29.189Z,2.40
2023-01-06T03:51:10.508Z,2.27
2023-01-06T03:53:58.657Z,2.50
2023-01-06T03:56:44.909Z,2.27
2023-01-06T03:59:19.136Z,2.07
2023-01-06T04:01:48.794Z,2.67
2023-01-06T04:04:18.263Z,2.57
2023-01-06T04:06:45.404Z,2.80
2023-01-06T04:09:12.857Z,3.03
2023-01-06T04:11:58.806Z,2.20
2023-01-06T04:14:26.254Z,2.33
2023-01-06T04:16:53.484Z,2.20
2023-01-06T04:19:21.078Z,2.77
2023-01-06T04:21:48.007Z,2.50
2023-01-06T04:24:14.973Z,3.33
2023-01-06T04:26:41.820Z,3.07
2023-01-06T04:29:08.664Z,2.90
2023-01-06T04:31:37.770Z,2.77
2023-01-06T04:34:04.862Z,2.87
2023-01-06T04:36:31.867Z,3.23
2023-01-06T04:38:59.153Z,3.63
2023-01-06T04:41:26.761Z,4.00
2023-01-06T04:43:53.604Z,3.53
2023-01-06T04:46:20.453Z,3.00
2023-01-06T04:48:47.414Z,3.00
2023-01-06T04:51:14.451Z,3.30
2023-01-06T04:53:41.744Z,3.70
2023-01-06T04:56:09.868Z,2.67
2023-01-06T04:58:37.128Z,3.20
2023-01-06T05:01:05.496Z,5.30
2023-01-06T05:03:33.526Z,13.93
2023-01-06T05:06:01.588Z,5.80
2023-01-06T05:08:28.462Z,5.70
2023-01-06T05:11:05.792Z,5.17
2023-01-06T05:13:32.685Z,3.53
2023-01-06T05:15:59.550Z,3.10
2023-01-06T05:18:26.402Z,2.60
2023-01-06T05:20:54.455Z,3.20
2023-01-06T05:23:21.658Z,2.90
2023-01-06T05:25:50.457Z,3.27
2023-01-06T05:28:17.439Z,3.03
2023-01-06T05:30:44.372Z,4.67
2023-01-06T05:33:11.665Z,4.33
2023-01-06T05:35:38.428Z,4.40
2023-01-06T05:38:05.385Z,3.77
2023-01-06T05:40:32.289Z,5.03
2023-01-06T05:42:59.240Z,5.93
2023-01-06T05:45:26.502Z,4.90
2023-01-06T05:47:53.471Z,3.67
2023-01-06T05:50:20.278Z,4.07
2023-01-06T05:52:50.465Z,3.50
2023-01-06T05:55:17.325Z,3.53
2023-01-06T05:57:44.287Z,3.57
2023-01-06T06:00:11.556Z,4.03
2023-01-06T06:02:41.193Z,4.07
2023-01-06T06:05:09.262Z,3.87
2023-01-06T06:07:36.246Z,2.80
2023-01-06T06:10:03.116Z,2.27
2023-01-06T06:12:30.038Z,2.20
2023-01-06T06:14:56.866Z,2.97
2023-01-06T06:17:24.410Z,4.70
2023-01-06T06:19:51.642Z,4.03
2023-01-06T06:22:18.801Z,2.63
2023-01-06T06:24:45.831Z,5.67
2023-01-06T06:27:12.739Z,3.07
2023-01-06T06:29:39.555Z,3.40
2023-01-06T06:32:06.425Z,3.20
2023-01-06T06:34:33.233Z,3.27
2023-01-06T06:37:00.217Z,2.93
2023-01-06T06:39:27.080Z,2.73
2023-01-06T06:41:53.927Z,2.90
2023-01-06T06:44:20.787Z,3.63
2023-01-06T06:46:47.661Z,2.57
2023-01-06T06:49:14.536Z,2.63
2023-01-06T06:51:41.720Z,2.20
2023-01-06T06:54:08.883Z,2.43
2023-01-06T06:56:35.767Z,2.87
2023-01-06T06:59:02.537Z,2.87
2023-01-06T07:01:31.995Z,2.30
2023-01-06T07:03:59.139Z,3.13
2023-01-06T07:06:28.831Z,3.50
2023-01-06T07:08:55.901Z,3.63
2023-01-06T07:11:22.896Z,4.30
2023-01-06T07:13:49.764Z,5.23
2023-01-06T07:16:16.898Z,5.53
2023-01-06T07:18:43.952Z,3.60
2023-01-06T07:21:10.967Z,3.97
2023-01-06T07:23:38.442Z,2.67
2023-01-06T07:26:05.337Z,2.20
2023-01-06T07:28:32.710Z,2.47
2023-01-06T07:31:00.033Z,3.70
2023-01-06T07:33:26.989Z,2.97
2023-01-06T07:35:54.494Z,3.47
2023-01-06T07:38:21.635Z,4.27
2023-01-06T07:40:48.924Z,3.83
2023-01-06T07:43:17.214Z,4.67
2023-01-06T07:45:46.493Z,3.47
2023-01-06T07:48:14.222Z,4.43
2023-01-06T07:50:41.059Z,3.97
2023-01-06T07:53:09.126Z,5.20
2023-01-06T07:55:36.120Z,5.37
2023-01-06T07:58:06.787Z,3.70
2023-01-06T08:00:34.084Z,2.60
2023-01-06T08:03:03.876Z,2.67
2023-01-06T08:05:30.924Z,2.30
2023-01-06T08:07:57.707Z,2.20
2023-01-06T08:10:24.602Z,2.43
2023-01-06T08:12:51.442Z,1.83
2023-01-06T08:15:18.410Z,1.80
2023-01-06T08:17:45.237Z,2.20
2023-01-06T08:20:12.061Z,2.30
2023-01-06T08:22:39.006Z,1.97
2023-01-06T08:25:06.117Z,2.20
2023-01-06T08:27:32.885Z,1.80
2023-01-06T08:29:59.771Z,1.97
2023-01-06T08:32:26.678Z,2.03
2023-01-06T08:34:53.547Z,1.80
2023-01-06T08:37:20.570Z,2.37
2023-01-06T08:39:47.421Z,3.27
2023-01-06T08:42:14.592Z,1.80
2023-01-06T08:44:41.732Z,2.20
2023-01-06T08:47:08.737Z,2.00
2023-01-06T08:49:35.542Z,2.13
2023-01-06T08:52:02.583Z,2.10
2023-01-06T08:54:29.947Z,2.57
2023-01-06T08:56:57.546Z,1.90
2023-01-06T08:59:24.387Z,2.33
2023-01-06T09:01:52.160Z,1.90
2023-01-06T09:04:19.272Z,1.93
2023-01-06T09:06:47.607Z,2.23
2023-01-06T09:09:14.911Z,2.20
2023-01-06T09:11:45.367Z,2.20
2023-01-06T09:14:14.346Z,2.23
2023-01-06T09:16:41.459Z,1.80
2023-01-06T09:19:10.586Z,2.93
2023-01-06T09:21:37.969Z,2.23
2023-01-06T09:24:05.163Z,2.57
2023-01-06T09:26:32.084Z,2.77
2023-01-06T09:28:59.061Z,3.73
2023-01-06T09:31:26.941Z,4.20
2023-01-06T09:33:54.432Z,4.23
2023-01-06T09:36:21.539Z,3.70
2023-01-06T09:38:48.386Z,4.43
2023-01-06T09:41:30.557Z,3.60
2023-01-06T09:44:06.349Z,5.03
2023-01-06T09:46:35.874Z,6.27
2023-01-06T09:49:02.825Z,5.50
2023-01-06T09:51:30.287Z,5.97
2023-01-06T09:54:00.473Z,17.87
2023-01-06T09:56:27.913Z,6.70
2023-01-06T09:59:00.376Z,5.33
2023-01-06T10:01:33.335Z,4.80
2023-01-06T10:04:01.016Z,3.60
2023-01-06T10:06:33.628Z,4.20
2023-01-06T10:09:06.580Z,4.03
2023-01-06T10:11:50.895Z,4.00
2023-01-06T10:14:30.996Z,4.30
2023-01-06T10:16:57.921Z,3.90
2023-01-06T10:19:24.738Z,3.47
2023-01-06T10:22:07.387Z,3.83
2023-01-06T10:24:34.149Z,3.23
2023-01-06T10:27:10.311Z,3.83
2023-01-06T10:29:37.933Z,3.17
2023-01-06T10:32:05.690Z,3.83
2023-01-06T10:34:34.316Z,3.63
2023-01-06T10:37:03.952Z,4.27
2023-01-06T10:39:32.059Z,4.23
2023-01-06T10:42:23.182Z,4.03
2023-01-06T10:44:50.149Z,4.13
2023-01-06T10:47:28.387Z,4.37
2023-01-06T10:49:55.534Z,3.90
2023-01-06T10:52:23.125Z,3.93
2023-01-06T10:54:55.073Z,4.30
2023-01-06T10:57:29.972Z,4.10
2023-01-06T11:00:10.414Z,3.90
2023-01-06T11:02:38.192Z,4.30
2023-01-06T11:05:05.726Z,4.63
2023-01-06T11:07:33.346Z,5.07
2023-01-06T11:10:00.895Z,4.87
2023-01-06T11:12:29.210Z,4.47
2023-01-06T11:14:57.992Z,4.80
2023-01-06T11:17:25.666Z,4.87
2023-01-06T11:20:11.175Z,4.27
2023-01-06T11:22:40.151Z,4.47
2023-01-06T11:25:22.306Z,3.97
2023-01-06T11:27:50.428Z,3.93
2023-01-06T11:30:21.426Z,4.47
2023-01-06T11:32:48.307Z,4.10
2023-01-06T11:35:22.691Z,3.93
2023-01-06T11:37:49.666Z,4.33
2023-01-06T11:40:25.413Z,3.87
2023-01-06T11:42:54.934Z,3.77
2023-01-06T11:45:35.697Z,4.10
2023-01-06T11:48:07.458Z,3.80
2023-01-06T11:50:34.700Z,3.50
2023-01-06T11:53:03.067Z,4.27
2023-01-06T11:55:31.006Z,5.03
2023-01-06T11:58:00.654Z,4.43
2023-01-06T12:00:36.873Z,5.00
2023-01-06T12:03:22.631Z,4.73
2023-01-06T12:05:49.585Z,5.07
2023-01-06T12:08:16.515Z,5.73
2023-01-06T12:10:45.538Z,4.93
2023-01-06T12:13:15.489Z,5.67
2023-01-06T12:15:44.500Z,5.80
2023-01-06T12:18:19.173Z,6.00
2023-01-06T12:20:48.135Z,6.90
2023-01-06T12:23:19.797Z,6.07
2023-01-06T12:25:48.133Z,6.80
2023-01-06T12:28:16.953Z,6.27
2023-01-06T12:30:53.869Z,6.53
2023-01-06T12:33:20.778Z,6.67
2023-01-06T12:35:49.927Z,7.30
2023-01-06T12:38:25.731Z,7.53
2023-01-06T12:40:55.186Z,8.20
2023-01-06T12:43:25.760Z,7.87
2023-01-06T12:46:04.843Z,8.90
2023-01-06T12:48:45.855Z,9.77
2023-01-06T12:51:35.687Z,8.90
2023-01-06T12:54:06.001Z,8.50
2023-01-06T12:56:56.386Z,9.67
2023-01-06T12:59:29.657Z,9.37
2023-01-06T13:02:02.019Z,8.90
2023-01-06T13:04:49.102Z,9.73
2023-01-06T13:07:19.124Z,8.73
2023-01-06T13:09:49.026Z,8.03
2023-01-06T13:12:25.122Z,9.60
2023-01-06T13:14:57.671Z,9.53
2023-01-06T13:17:28.960Z,10.40
2023-01-06T13:19:57.986Z,9.27
2023-01-06T13:22:27.892Z,9.93
2023-01-06T13:25:14.056Z,9.37
2023-01-06T13:27:58.492Z,10.37
2023-01-06T13:30:40.730Z,9.63
2023-01-06T13:33:15.698Z,9.07
2023-01-06T13:36:01.901Z,9.53
2023-01-06T13:38:37.664Z,10.10
2023-01-06T13:41:06.440Z,10.93
2023-01-06T13:43:34.353Z,10.03
2023-01-06T13:46:07.443Z,10.03
2023-01-06T13:48:39.485Z,9.47
2023-01-06T13:51:07.932Z,10.07
2023-01-06T13:53:38.964Z,8.97
2023-01-06T13:56:26.142Z,9.37
2023-01-06T13:59:13.180Z,9.83
2023-01-06T14:01:40.503Z,9.27
2023-01-06T14:04:25.935Z,10.40
2023-01-06T14:06:52.918Z,8.77
2023-01-06T14:09:20.612Z,7.90
2023-01-06T14:11:47.950Z,9.67
2023-01-06T14:14:25.426Z,9.60
2023-01-06T14:16:53.496Z,9.03
2023-01-06T14:19:29.498Z,8.60
2023-01-06T14:22:13.270Z,9.43
2023-01-06T14:24:42.182Z,8.93
2023-01-06T14:27:11.730Z,8.47
2023-01-06T14:29:45.103Z,8.60
2023-01-06T14:32:15.470Z,8.23
2023-01-06T14:34:56.466Z,8.10
2023-01-06T14:37:43.749Z,7.93
2023-01-06T14:40:27.152Z,7.40
2023-01-06T14:42:55.519Z,8.40
2023-01-06T14:45:25.180Z,8.07
2023-01-06T14:48:12.252Z,7.13
2023-01-06T14:50:47.162Z,7.33
2023-01-06T14:53:14.348Z,7.70
2023-01-06T14:55:45.162Z,8.03
2023-01-06T14:58:32.348Z,7.90
2023-01-06T15:01:00.094Z,7.53
2023-01-06T15:03:28.082Z,7.57
2023-01-06T15:06:10.447Z,7.47
2023-01-06T15:08:37.634Z,7.97
2023-01-06T15:11:33.824Z,7.67
2023-01-06T15:14:01.014Z,7.10
2023-01-06T15:16:36.626Z,7.47
2023-01-06T15:19:07.097Z,7.70
2023-01-06T15:21:39.109Z,7.47
2023-01-06T15:24:06.383Z,7.43
2023-01-06T15:26:33.251Z,7.90
2023-01-06T15:29:07.311Z,7.43
2023-01-06T15:31:40.141Z,7.36
2023-01-06T15:34:10.136Z,8.97
2023-01-06T15:36:38.130Z,7.23
2023-01-06T15:39:05.629Z,7.23
2023-01-06T15:41:33.645Z,7.83
2023-01-06T15:44:01.703Z,7.90
2023-01-06T15:46:36.248Z,7.00
2023-01-06T15:49:03.349Z,7.30
2023-01-06T15:51:30.246Z,8.40
2023-01-06T15:53:58.497Z,7.97
2023-01-06T15:56:26.729Z,7.70
2023-01-06T15:58:54.853Z,7.33
2023-01-06T16:01:22.834Z,7.63
2023-01-06T16:03:54.314Z,7.50
2023-01-06T16:06:25.891Z,7.93
2023-01-06T16:08:52.905Z,7.73
2023-01-06T16:11:48.363Z,7.53
2023-01-06T16:14:30.823Z,7.23
2023-01-06T16:17:03.643Z,7.50
2023-01-06T16:19:30.824Z,7.30
2023-01-06T16:21:59.081Z,7.97
2023-01-06T16:24:27.519Z,7.57
2023-01-06T16:26:56.375Z,7.77
2023-01-06T16:29:29.117Z,7.47
2023-01-06T16:31:56.691Z,8.17
2023-01-06T16:34:31.602Z,8.50
2023-01-06T16:36:59.425Z,9.13
2023-01-06T16:39:26.668Z,9.67
2023-01-06T16:41:59.396Z,9.67
2023-01-06T16:44:26.654Z,9.43
2023-01-06T16:46:53.603Z,9.40
2023-01-06T16:49:21.614Z,9.37
2023-01-06T16:51:48.701Z,9.50
2023-01-06T16:54:18.815Z,9.07
2023-01-06T16:56:46.432Z,9.33
2023-01-06T16:59:14.602Z,9.77
2023-01-06T17:01:42.140Z,10.73
2023-01-06T17:04:11.295Z,10.33
2023-01-06T17:06:42.776Z,9.97
2023-01-06T17:09:19.979Z,9.37
2023-01-06T17:11:47.696Z,9.97
2023-01-06T17:14:15.389Z,8.97
2023-01-06T17:16:43.012Z,8.80
2023-01-06T17:19:23.386Z,9.07
2023-01-06T17:21:53.053Z,9.03
2023-01-06T17:24:23.539Z,9.63
2023-01-06T17:26:57.594Z,10.07
2023-01-06T17:29:27.272Z,10.03
2023-01-06T17:31:58.102Z,9.30
2023-01-06T17:34:31.917Z,9.30
2023-01-06T17:37:03.779Z,9.63
2023-01-06T17:39:32.643Z,9.77
2023-01-06T17:42:01.921Z,9.33
2023-01-06T17:44:46.168Z,9.23
2023-01-06T17:47:15.881Z,9.80
2023-01-06T17:49:55.073Z,10.27
2023-01-06T17:52:23.353Z,11.33
2023-01-06T17:55:11.138Z,10.07
2023-01-06T17:57:39.151Z,10.40
2023-01-06T18:00:16.054Z,10.70
2023-01-06T18:02:47.159Z,11.27
2023-01-06T18:05:26.392Z,10.77
2023-01-06T18:08:05.491Z,11.07
2023-01-06T18:10:33.433Z,10.70
2023-01-06T18:13:13.103Z,11.47
2023-01-06T18:15:40.133Z,11.27
2023-01-06T18:18:18.444Z,10.93
2023-01-06T18:20:53.569Z,10.63
2023-01-06T18:23:22.506Z,11.77
2023-01-06T18:25:52.768Z,12.83
2023-01-06T18:28:19.695Z,12.00
2023-01-06T18:30:48.136Z,11.77
2023-01-06T18:33:16.272Z,13.47
2023-01-06T18:35:43.801Z,13.37
2023-01-06T18:38:10.741Z,12.90
2023-01-06T18:40:38.243Z,10.60
2023-01-06T18:43:40.770Z,9.83
2023-01-06T18:46:15.329Z,10.37
2023-01-06T18:48:42.858Z,10.50
2023-01-06T18:51:18.772Z,12.17
2023-01-06T18:53:47.804Z,10.43
2023-01-06T18:56:18.971Z,12.67
2023-01-06T18:58:47.890Z,12.60
2023-01-06T19:01:40.804Z,13.33
2023-01-06T19:04:29.177Z,19.90
2023-01-06T19:07:05.804Z,12.83
2023-01-06T19:09:32.685Z,11.63
2023-01-06T19:12:09.862Z,18.57
2023-01-06T19:14:38.756Z,19.73
2023-01-06T19:17:13.954Z,13.83
2023-01-06T19:19:41.492Z,13.87
2023-01-06T19:22:14.292Z,10.07
2023-01-06T19:24:43.786Z,9.53
2023-01-06T19:27:25.787Z,9.20
2023-01-06T19:29:54.763Z,9.17
2023-01-06T19:32:21.876Z,10.50
2023-01-06T19:34:48.754Z,9.93
2023-01-06T19:37:17.125Z,11.57
2023-01-06T19:39:50.880Z,11.33
2023-01-06T19:42:19.524Z,12.43
2023-01-06T19:44:48.175Z,10.10
2023-01-06T19:47:25.490Z,11.10
2023-01-06T19:49:56.085Z,10.57
2023-01-06T19:52:22.936Z,10.90
2023-01-06T19:54:49.757Z,11.07
2023-01-06T19:57:23.931Z,10.70
2023-01-06T19:59:51.028Z,11.23
2023-01-06T20:02:20.668Z,10.33
2023-01-06T20:04:47.704Z,12.33
2023-01-06T20:07:14.653Z,10.43
2023-01-06T20:09:41.431Z,12.60
2023-01-06T20:12:08.397Z,13.23
2023-01-06T20:14:35.355Z,12.00
2023-01-06T20:17:02.128Z,10.37
2023-01-06T20:19:29.134Z,11.50
2023-01-06T20:21:56.112Z,12.20
2023-01-06T20:24:22.949Z,12.63
2023-01-06T20:26:49.958Z,11.37
2023-01-06T20:29:16.714Z,11.57
2023-01-06T20:31:43.634Z,11.37
2023-01-06T20:34:10.525Z,10.97
2023-01-06T20:36:37.513Z,12.70
2023-01-06T20:39:04.901Z,12.33
2023-01-06T20:41:31.869Z,12.73
2023-01-06T20:43:58.633Z,14.83
2023-01-06T20:46:25.681Z,13.17
2023-01-06T20:48:52.497Z,11.87
2023-01-06T20:51:19.273Z,11.83
2023-01-06T20:53:46.347Z,13.43
2023-01-06T20:56:13.282Z,12.77
2023-01-06T20:58:40.144Z,13.40
2023-01-06T21:01:07.175Z,12.57
2023-01-06T21:03:34.208Z,14.70
2023-01-06T21:06:01.265Z,15.07
2023-01-06T21:08:28.174Z,12.90
2023-01-06T21:10:55.021Z,16.07
2023-01-06T21:13:24.028Z,15.57
2023-01-06T21:15:51.204Z,14.90
2023-01-06T21:18:17.992Z,14.20
2023-01-06T21:20:45.028Z,13.77
2023-01-06T21:23:11.909Z,12.63
2023-01-06T21:25:38.721Z,14.20
2023-01-06T21:28:05.666Z,15.10
2023-01-06T21:30:32.490Z,14.37
2023-01-06T21:32:59.524Z,15.53
2023-01-06T21:35:26.511Z,14.13
2023-01-06T21:37:53.358Z,16.10
2023-01-06T21:40:20.289Z,15.13
2023-01-06T21:43:06.213Z,14.70
2023-01-06T21:45:33.134Z,15.07
2023-01-06T21:47:59.890Z,15.57
2023-01-06T21:50:27.159Z,14.87
2023-01-06T21:52:54.160Z,15.83
2023-01-06T21:55:21.003Z,14.77
2023-01-06T21:57:48.213Z,14.47
2023-01-06T22:00:15.383Z,14.97
2023-01-06T22:02:42.797Z,15.87
2023-01-06T22:05:10.060Z,14.67
2023-01-06T22:07:40.022Z,13.53
2023-01-06T22:10:07.829Z,15.13
2023-01-06T22:12:34.795Z,14.57
2023-01-06T22:15:01.790Z,15.47
2023-01-06T22:17:28.656Z,14.43
2023-01-06T22:19:56.015Z,14.40
2023-01-06T22:22:23.464Z,13.20
2023-01-06T22:24:52.035Z,15.87
2023-01-06T22:27:18.893Z,17.13
2023-01-06T22:29:45.768Z,14.67
2023-01-06T22:32:12.690Z,15.60
2023-01-06T22:34:39.546Z,15.13
2023-01-06T22:37:06.476Z,14.23
2023-01-06T22:39:33.304Z,12.13
2023-01-06T22:42:00.492Z,14.27
2023-01-06T22:44:27.437Z,13.13
2023-01-06T22:46:54.687Z,12.83
2023-01-06T22:49:21.712Z,11.17
2023-01-06T22:51:48.587Z,11.67
2023-01-06T22:54:15.822Z,11.33
2023-01-06T22:56:42.683Z,12.20
2023-01-06T22:59:09.874Z,11.27
2023-01-06T23:01:36.713Z,11.50
2023-01-06T23:04:04.169Z,11.83
2023-01-06T23:06:31.155Z,11.33
2023-01-06T23:09:00.686Z,11.97
2023-01-06T23:11:28.493Z,12.40
2023-01-06T23:13:56.822Z,13.17
2023-01-06T23:16:26.899Z,11.83
2023-01-06T23:18:54.274Z,11.50
2023-01-06T23:21:22.612Z,11.67
2023-01-06T23:23:50.412Z,15.10
2023-01-06T23:26:18.608Z,16.73
2023-01-06T23:28:45.650Z,12.90
2023-01-06T23:31:16.821Z,13.47
2023-01-06T23:33:45.175Z,12.43
2023-01-06T23:36:12.774Z,12.80
2023-01-06T23:38:39.764Z,12.57
2023-01-06T23:41:08.412Z,12.03
2023-01-06T23:43:35.962Z,12.80
2023-01-06T23:46:03.985Z,13.53
2023-01-06T23:48:31.512Z,11.53
2023-01-06T23:50:58.923Z,11.60
2023-01-06T23:53:26.824Z,11.60
2023-01-06T23:55:54.443Z,13.17
2023-01-06T23:58:21.480Z,11.97
